NSZ2613 ESSA-EFHK
Flight info
| Callsign | NSZ2613 |
|---|---|
| Flight time | 0h 45m |
| Altitude | 31000 |
| Route | TOVRI N851 RIKUM DCT RIRIP Y364 LAKUT |
| Aircraft | B38M/M-SDE1FGHILORVWXY/HB1 |
Departure
| Time | 2026-04-20 15:09 |
|---|---|
| Airport | Stockholm-Arlanda Airport (ESSA) |
Arrival
| Time | 2026-04-20 15:54 |
|---|---|
| Airport | Helsinki Vantaa Airport (EFHK) |
| Time | Latitude | Longitude | Altitude | Speed | Heading |
|---|---|---|---|---|---|
| 2026-04-20 14:45 | 59.65288 | 17.92954 | 114 ft | 0 kts | 70° |
| 2026-04-20 14:58 | 59.65281 | 17.92917 | 112 ft | 4 kts | 68° |
| 2026-04-20 14:59 | 59.65270 | 17.92868 | 114 ft | 4 kts | 59° |
| 2026-04-20 14:59 | 59.65254 | 17.92832 | 113 ft | 4 kts | 21° |
| 2026-04-20 14:59 | 59.65241 | 17.92830 | 112 ft | 0 kts | 332° |
| 2026-04-20 15:03 | 59.65241 | 17.92831 | 114 ft | 0 kts | 332° |
| 2026-04-20 15:04 | 59.65241 | 17.92830 | 114 ft | 1 kts | 332° |
| 2026-04-20 15:04 | 59.65260 | 17.92811 | 113 ft | 6 kts | 332° |
| 2026-04-20 15:04 | 59.65323 | 17.92744 | 113 ft | 15 kts | 331° |
| 2026-04-20 15:05 | 59.65383 | 17.92603 | 113 ft | 11 kts | 259° |
| 2026-04-20 15:05 | 59.65332 | 17.92499 | 112 ft | 13 kts | 216° |
| 2026-04-20 15:05 | 59.65223 | 17.92407 | 113 ft | 19 kts | 199° |
| 2026-04-20 15:05 | 59.65083 | 17.92343 | 114 ft | 22 kts | 191° |
| 2026-04-20 15:06 | 59.64927 | 17.92283 | 111 ft | 24 kts | 189° |
| 2026-04-20 15:06 | 59.64757 | 17.92222 | 114 ft | 26 kts | 190° |
| 2026-04-20 15:06 | 59.64572 | 17.92157 | 114 ft | 28 kts | 190° |
| 2026-04-20 15:06 | 59.64399 | 17.92094 | 116 ft | 21 kts | 190° |
| 2026-04-20 15:07 | 59.64327 | 17.91958 | 115 ft | 13 kts | 260° |
| 2026-04-20 15:07 | 59.64275 | 17.91882 | 114 ft | 9 kts | 191° |
| 2026-04-20 15:07 | 59.64203 | 17.91856 | 116 ft | 13 kts | 190° |
| 2026-04-20 15:07 | 59.64092 | 17.91816 | 116 ft | 21 kts | 190° |
| 2026-04-20 15:08 | 59.63919 | 17.91754 | 112 ft | 28 kts | 190° |
| 2026-04-20 15:08 | 59.63772 | 17.91594 | 108 ft | 14 kts | 219° |
| 2026-04-20 15:08 | 59.63727 | 17.91422 | 111 ft | 14 kts | 282° |
| 2026-04-20 15:08 | 59.63806 | 17.91350 | 111 ft | 15 kts | 9° |
| 2026-04-20 15:09 | 59.63915 | 17.91391 | 110 ft | 20 kts | 9° |
| 2026-04-20 15:09 | 59.64224 | 17.91503 | 109 ft | 89 kts | 10° |
| 2026-04-20 15:09 | 59.65120 | 17.91817 | 155 ft | 166 kts | 9° |
| 2026-04-20 15:09 | 59.66372 | 17.92248 | 920 ft | 188 kts | 9° |
| 2026-04-20 15:10 | 59.67624 | 17.92683 | 2408 ft | 187 kts | 10° |
| 2026-04-20 15:10 | 59.68947 | 17.93179 | 3573 ft | 197 kts | 12° |
| 2026-04-20 15:10 | 59.70336 | 17.93699 | 4586 ft | 208 kts | 12° |
| 2026-04-20 15:10 | 59.71771 | 17.94244 | 4937 ft | 216 kts | 16° |
| 2026-04-20 15:11 | 59.73052 | 17.95736 | 4887 ft | 224 kts | 49° |
| 2026-04-20 15:11 | 59.73735 | 17.98616 | 5582 ft | 241 kts | 76° |
| 2026-04-20 15:11 | 59.74063 | 18.01968 | 6735 ft | 253 kts | 77° |
| 2026-04-20 15:11 | 59.74399 | 18.05425 | 8070 ft | 257 kts | 77° |
| 2026-04-20 15:12 | 59.74732 | 18.08950 | 9328 ft | 262 kts | 77° |
| 2026-04-20 15:12 | 59.75061 | 18.12547 | 10513 ft | 267 kts | 78° |
| 2026-04-20 15:12 | 59.75303 | 18.16299 | 11430 ft | 285 kts | 86° |
| 2026-04-20 15:12 | 59.75284 | 18.20385 | 12132 ft | 306 kts | 88° |
| 2026-04-20 15:13 | 59.75262 | 18.24707 | 12965 ft | 320 kts | 88° |
| 2026-04-20 15:13 | 59.75242 | 18.29190 | 13894 ft | 329 kts | 88° |
| 2026-04-20 15:13 | 59.75223 | 18.33734 | 15007 ft | 331 kts | 88° |
| 2026-04-20 15:13 | 59.75203 | 18.38356 | 16003 ft | 335 kts | 88° |
| 2026-04-20 15:14 | 59.75182 | 18.43005 | 16925 ft | 340 kts | 88° |
| 2026-04-20 15:14 | 59.75159 | 18.47663 | 17809 ft | 344 kts | 88° |
| 2026-04-20 15:14 | 59.75134 | 18.52429 | 18659 ft | 348 kts | 88° |
| 2026-04-20 15:14 | 59.75108 | 18.57269 | 19461 ft | 352 kts | 88° |
| 2026-04-20 15:15 | 59.75078 | 18.62158 | 20278 ft | 355 kts | 89° |
| 2026-04-20 15:15 | 59.75047 | 18.67091 | 21042 ft | 359 kts | 89° |
| 2026-04-20 15:15 | 59.75028 | 18.72070 | 21756 ft | 363 kts | 86° |
| 2026-04-20 15:15 | 59.75533 | 18.76950 | 22447 ft | 364 kts | 67° |
| 2026-04-20 15:16 | 59.76777 | 18.81347 | 23104 ft | 368 kts | 57° |
| 2026-04-20 15:16 | 59.78167 | 18.85560 | 23765 ft | 371 kts | 57° |
| 2026-04-20 15:16 | 59.79611 | 18.89842 | 24401 ft | 375 kts | 57° |
| 2026-04-20 15:16 | 59.80599 | 18.92743 | 24820 ft | 377 kts | 57° |
| 2026-04-20 15:17 | 59.82081 | 18.97062 | 25430 ft | 380 kts | 57° |
| 2026-04-20 15:17 | 59.84071 | 19.02837 | 26196 ft | 384 kts | 57° |
| 2026-04-20 15:17 | 59.85589 | 19.07239 | 26759 ft | 387 kts | 57° |
| 2026-04-20 15:17 | 59.87116 | 19.11672 | 27295 ft | 390 kts | 57° |
| 2026-04-20 15:18 | 59.88156 | 19.14695 | 27669 ft | 392 kts | 57° |
| 2026-04-20 15:18 | 59.89697 | 19.19183 | 28208 ft | 394 kts | 57° |
| 2026-04-20 15:18 | 59.91247 | 19.23702 | 28686 ft | 397 kts | 57° |
| 2026-04-20 15:18 | 59.92809 | 19.28268 | 29176 ft | 399 kts | 57° |
| 2026-04-20 15:19 | 59.94378 | 19.32863 | 29645 ft | 402 kts | 57° |
| 2026-04-20 15:19 | 59.95935 | 19.37432 | 30091 ft | 404 kts | 58° |
| 2026-04-20 15:19 | 59.97177 | 19.42460 | 30541 ft | 404 kts | 73° |
| 2026-04-20 15:19 | 59.97875 | 19.47925 | 30959 ft | 406 kts | 75° |
| 2026-04-20 15:20 | 59.98587 | 19.53400 | 31327 ft | 410 kts | 75° |
| 2026-04-20 15:20 | 59.99957 | 19.64401 | 31401 ft | 404 kts | 76° |
| 2026-04-20 15:21 | 60.01270 | 19.75265 | 31403 ft | 404 kts | 76° |
| 2026-04-20 15:21 | 60.02573 | 19.86158 | 31404 ft | 404 kts | 76° |
| 2026-04-20 15:22 | 60.03871 | 19.97089 | 31405 ft | 404 kts | 76° |
| 2026-04-20 15:22 | 60.05158 | 20.08015 | 31405 ft | 403 kts | 76° |
| 2026-04-20 15:23 | 60.06438 | 20.18974 | 31403 ft | 404 kts | 77° |
| 2026-04-20 15:23 | 60.07703 | 20.29887 | 31395 ft | 404 kts | 77° |
| 2026-04-20 15:24 | 60.08966 | 20.40861 | 31394 ft | 404 kts | 77° |
| 2026-04-20 15:24 | 60.10217 | 20.51827 | 31393 ft | 403 kts | 77° |
| 2026-04-20 15:25 | 60.11450 | 20.62725 | 31387 ft | 403 kts | 77° |
| 2026-04-20 15:25 | 60.12682 | 20.73691 | 31386 ft | 402 kts | 77° |
| 2026-04-20 15:26 | 60.13900 | 20.84632 | 31375 ft | 402 kts | 77° |
| 2026-04-20 15:26 | 60.15108 | 20.95570 | 31374 ft | 401 kts | 77° |
| 2026-04-20 15:27 | 60.16307 | 21.06510 | 31370 ft | 401 kts | 77° |
| 2026-04-20 15:27 | 60.17495 | 21.17443 | 31359 ft | 400 kts | 77° |
| 2026-04-20 15:28 | 60.18666 | 21.28292 | 31356 ft | 399 kts | 77° |
| 2026-04-20 15:28 | 60.19838 | 21.39221 | 31350 ft | 399 kts | 77° |
| 2026-04-20 15:29 | 60.20993 | 21.50136 | 31345 ft | 399 kts | 77° |
| 2026-04-20 15:29 | 60.22136 | 21.60994 | 31340 ft | 398 kts | 77° |
| 2026-04-20 15:30 | 60.23275 | 21.71899 | 31334 ft | 398 kts | 77° |
| 2026-04-20 15:30 | 60.24406 | 21.82812 | 31332 ft | 398 kts | 77° |
| 2026-04-20 15:31 | 60.25524 | 21.93707 | 31330 ft | 397 kts | 77° |
| 2026-04-20 15:31 | 60.26632 | 22.04596 | 31330 ft | 397 kts | 77° |
| 2026-04-20 15:32 | 60.27735 | 22.15520 | 31323 ft | 397 kts | 77° |
| 2026-04-20 15:32 | 60.28821 | 22.26382 | 31319 ft | 397 kts | 77° |
| 2026-04-20 15:33 | 60.29904 | 22.37304 | 31322 ft | 397 kts | 77° |
| 2026-04-20 15:33 | 60.30978 | 22.48239 | 31322 ft | 398 kts | 78° |
| 2026-04-20 15:34 | 60.32048 | 22.59215 | 31324 ft | 398 kts | 78° |
| 2026-04-20 15:34 | 60.33104 | 22.70188 | 31321 ft | 398 kts | 78° |
| 2026-04-20 15:35 | 60.34151 | 22.81165 | 31326 ft | 398 kts | 78° |
| 2026-04-20 15:35 | 60.35190 | 22.92155 | 31322 ft | 398 kts | 78° |
| 2026-04-20 15:36 | 60.36219 | 23.03153 | 30246 ft | 403 kts | 78° |
| 2026-04-20 15:36 | 60.36739 | 23.08747 | 29292 ft | 407 kts | 78° |
| 2026-04-20 15:36 | 60.37253 | 23.14303 | 28365 ft | 409 kts | 78° |
| 2026-04-20 15:36 | 60.37439 | 23.20026 | 27437 ft | 405 kts | 92° |
| 2026-04-20 15:37 | 60.36973 | 23.25588 | 26581 ft | 398 kts | 100° |
| 2026-04-20 15:37 | 60.36138 | 23.30881 | 25712 ft | 393 kts | 106° |
| 2026-04-20 15:37 | 60.35258 | 23.36022 | 24874 ft | 383 kts | 104° |
| 2026-04-20 15:37 | 60.34400 | 23.41074 | 24037 ft | 376 kts | 104° |
| 2026-04-20 15:38 | 60.33535 | 23.46018 | 23219 ft | 370 kts | 105° |
| 2026-04-20 15:38 | 60.32670 | 23.50873 | 22417 ft | 364 kts | 105° |
| 2026-04-20 15:38 | 60.31815 | 23.55600 | 21904 ft | 352 kts | 105° |
| 2026-04-20 15:38 | 60.30986 | 23.60147 | 21477 ft | 339 kts | 105° |
| 2026-04-20 15:39 | 60.30186 | 23.64523 | 21070 ft | 327 kts | 105° |
| 2026-04-20 15:39 | 60.29422 | 23.68695 | 20690 ft | 315 kts | 105° |
| 2026-04-20 15:39 | 60.28675 | 23.72762 | 20322 ft | 304 kts | 104° |
| 2026-04-20 15:39 | 60.27952 | 23.76698 | 19958 ft | 294 kts | 104° |
| 2026-04-20 15:40 | 60.27246 | 23.80538 | 19388 ft | 292 kts | 104° |
| 2026-04-20 15:40 | 60.26543 | 23.84359 | 18810 ft | 290 kts | 104° |
| 2026-04-20 15:40 | 60.25843 | 23.88162 | 18227 ft | 288 kts | 104° |
| 2026-04-20 15:40 | 60.25148 | 23.91932 | 17638 ft | 287 kts | 104° |
| 2026-04-20 15:41 | 60.24453 | 23.95693 | 17068 ft | 285 kts | 105° |
| 2026-04-20 15:41 | 60.23759 | 23.99437 | 16494 ft | 284 kts | 105° |
| 2026-04-20 15:41 | 60.23079 | 24.03102 | 15933 ft | 282 kts | 105° |
| 2026-04-20 15:41 | 60.22393 | 24.06796 | 15366 ft | 281 kts | 105° |
| 2026-04-20 15:42 | 60.21710 | 24.10464 | 14802 ft | 279 kts | 105° |
| 2026-04-20 15:42 | 60.21028 | 24.14115 | 14247 ft | 277 kts | 105° |
| 2026-04-20 15:42 | 60.20352 | 24.17731 | 13681 ft | 276 kts | 105° |
| 2026-04-20 15:42 | 60.19677 | 24.21338 | 13123 ft | 274 kts | 105° |
| 2026-04-20 15:43 | 60.19006 | 24.24914 | 12576 ft | 272 kts | 105° |
| 2026-04-20 15:43 | 60.18339 | 24.28471 | 11981 ft | 272 kts | 106° |
| 2026-04-20 15:43 | 60.17668 | 24.32028 | 11386 ft | 273 kts | 106° |
| 2026-04-20 15:43 | 60.16993 | 24.35612 | 10740 ft | 274 kts | 106° |
| 2026-04-20 15:44 | 60.16312 | 24.39214 | 10085 ft | 277 kts | 106° |
| 2026-04-20 15:44 | 60.15625 | 24.42843 | 9430 ft | 279 kts | 106° |
| 2026-04-20 15:44 | 60.14932 | 24.46495 | 8751 ft | 281 kts | 107° |
| 2026-04-20 15:44 | 60.14538 | 24.50256 | 8021 ft | 278 kts | 86° |
| 2026-04-20 15:45 | 60.14934 | 24.53996 | 7321 ft | 274 kts | 62° |
| 2026-04-20 15:45 | 60.16014 | 24.57115 | 6657 ft | 272 kts | 46° |
| 2026-04-20 15:45 | 60.17311 | 24.59891 | 5963 ft | 274 kts | 45° |
| 2026-04-20 15:45 | 60.18612 | 24.62712 | 5268 ft | 276 kts | 46° |
| 2026-04-20 15:46 | 60.19995 | 24.65326 | 4705 ft | 269 kts | 31° |
| 2026-04-20 15:46 | 60.21707 | 24.66525 | 4208 ft | 263 kts | 6° |
| 2026-04-20 15:46 | 60.23497 | 24.66000 | 3636 ft | 264 kts | 339° |
| 2026-04-20 15:46 | 60.24969 | 24.63832 | 3084 ft | 266 kts | 310° |
| 2026-04-20 15:47 | 60.25752 | 24.60514 | 2766 ft | 260 kts | 284° |
| 2026-04-20 15:47 | 60.26045 | 24.56994 | 2735 ft | 250 kts | 280° |
| 2026-04-20 15:47 | 60.26293 | 24.53594 | 2655 ft | 240 kts | 280° |
| 2026-04-20 15:47 | 60.26514 | 24.50346 | 2622 ft | 229 kts | 272° |
| 2026-04-20 15:48 | 60.26153 | 24.47297 | 2440 ft | 224 kts | 238° |
| 2026-04-20 15:48 | 60.25063 | 24.45226 | 2285 ft | 213 kts | 202° |
| 2026-04-20 15:48 | 60.23651 | 24.44816 | 2254 ft | 206 kts | 166° |
| 2026-04-20 15:48 | 60.22410 | 24.46122 | 2271 ft | 203 kts | 131° |
| 2026-04-20 15:49 | 60.21700 | 24.48549 | 2325 ft | 204 kts | 111° |
| 2026-04-20 15:49 | 60.21200 | 24.51222 | 2309 ft | 204 kts | 105° |
| 2026-04-20 15:49 | 60.20977 | 24.54024 | 2321 ft | 202 kts | 96° |
| 2026-04-20 15:49 | 60.20867 | 24.56806 | 2311 ft | 201 kts | 95° |
| 2026-04-20 15:50 | 60.20766 | 24.59603 | 2286 ft | 201 kts | 95° |
| 2026-04-20 15:50 | 60.20665 | 24.62401 | 2293 ft | 201 kts | 95° |
| 2026-04-20 15:50 | 60.20606 | 24.65206 | 2288 ft | 200 kts | 84° |
| 2026-04-20 15:50 | 60.21045 | 24.67750 | 2311 ft | 189 kts | 61° |
| 2026-04-20 15:51 | 60.21853 | 24.69785 | 2270 ft | 186 kts | 50° |
| 2026-04-20 15:51 | 60.22736 | 24.71692 | 2314 ft | 187 kts | 50° |
| 2026-04-20 15:51 | 60.23618 | 24.73621 | 2262 ft | 187 kts | 50° |
| 2026-04-20 15:51 | 60.24498 | 24.75531 | 2049 ft | 182 kts | 51° |
| 2026-04-20 15:52 | 60.25342 | 24.77378 | 1800 ft | 176 kts | 50° |
| 2026-04-20 15:52 | 60.26133 | 24.79107 | 1642 ft | 163 kts | 49° |
| 2026-04-20 15:52 | 60.26897 | 24.80782 | 1474 ft | 159 kts | 46° |
| 2026-04-20 15:53 | 60.28316 | 24.83877 | 1071 ft | 144 kts | 43° |
| 2026-04-20 15:53 | 60.28976 | 24.85309 | 849 ft | 139 kts | 44° |
| 2026-04-20 15:53 | 60.29630 | 24.86733 | 662 ft | 138 kts | 44° |
| 2026-04-20 15:53 | 60.30291 | 24.88162 | 489 ft | 140 kts | 44° |
| 2026-04-20 15:54 | 60.30944 | 24.89620 | 291 ft | 139 kts | 44° |
| 2026-04-20 15:54 | 60.31586 | 24.91034 | 149 ft | 128 kts | 45° |
| 2026-04-20 15:54 | 60.32064 | 24.92077 | 158 ft | 62 kts | 47° |
| 2026-04-20 15:54 | 60.32211 | 24.92515 | 168 ft | 31 kts | 71° |
| 2026-04-20 15:55 | 60.32249 | 24.92774 | 170 ft | 19 kts | 78° |
| 2026-04-20 15:55 | 60.32275 | 24.93030 | 171 ft | 10 kts | 81° |
| 2026-04-20 15:55 | 60.32244 | 24.93171 | 170 ft | 12 kts | 129° |
| 2026-04-20 15:55 | 60.32242 | 24.93243 | 170 ft | 3 kts | 52° |
| 2026-04-20 15:56 | 60.32262 | 24.93298 | 171 ft | 10 kts | 53° |
| 2026-04-20 15:56 | 60.32332 | 24.93465 | 173 ft | 20 kts | 47° |
| 2026-04-20 15:56 | 60.32439 | 24.93700 | 173 ft | 24 kts | 47° |
| 2026-04-20 15:56 | 60.32558 | 24.93960 | 173 ft | 27 kts | 46° |
| 2026-04-20 15:57 | 60.32672 | 24.94211 | 174 ft | 25 kts | 47° |
| 2026-04-20 15:57 | 60.32793 | 24.94474 | 176 ft | 25 kts | 47° |
| 2026-04-20 15:57 | 60.32895 | 24.94703 | 177 ft | 19 kts | 48° |
| 2026-04-20 15:57 | 60.32930 | 24.94821 | 179 ft | 6 kts | 96° |
| 2026-04-20 15:58 | 60.32877 | 24.94923 | 177 ft | 18 kts | 156° |
| 2026-04-20 15:58 | 60.32749 | 24.95005 | 180 ft | 20 kts | 162° |
| 2026-04-20 15:58 | 60.32614 | 24.95094 | 183 ft | 21 kts | 162° |
| 2026-04-20 15:58 | 60.32465 | 24.95192 | 181 ft | 21 kts | 162° |
| 2026-04-20 15:59 | 60.32325 | 24.95304 | 179 ft | 20 kts | 145° |
| 2026-04-20 15:59 | 60.32213 | 24.95501 | 176 ft | 23 kts | 138° |
| 2026-04-20 15:59 | 60.32110 | 24.95690 | 175 ft | 19 kts | 137° |
| 2026-04-20 15:59 | 60.32013 | 24.95872 | 175 ft | 19 kts | 136° |
| 2026-04-20 16:00 | 60.31921 | 24.96044 | 170 ft | 21 kts | 138° |
| 2026-04-20 16:00 | 60.31857 | 24.96198 | 169 ft | 13 kts | 104° |
| 2026-04-20 16:00 | 60.31875 | 24.96362 | 169 ft | 7 kts | 54° |
| 2026-04-20 16:00 | 60.31908 | 24.96442 | 169 ft | 7 kts | 55° |
| 2026-04-20 16:01 | 60.31910 | 24.96460 | 169 ft | 1 kts | 94° |
| 2026-04-20 16:01 | 60.31895 | 24.96499 | 169 ft | 6 kts | 134° |
| 2026-04-20 16:01 | 60.31882 | 24.96526 | 169 ft | 3 kts | 136° |
| 2026-04-20 16:01 | 60.31874 | 24.96540 | 169 ft | 0 kts | 137° |